sensor_id;sensor_type;location;lat;lon;timestamp;P1;durP1;ratioP1;P2;durP2;ratioP2
72590;SDS011;60625;51.212;5.952;2023-08-06T00:04:27;4.10;;;1.90;;
72590;SDS011;60625;51.212;5.952;2023-08-06T00:09:27;3.90;;;1.90;;
72590;SDS011;60625;51.212;5.952;2023-08-06T00:14:27;4.00;;;1.80;;
72590;SDS011;60625;51.212;5.952;2023-08-06T00:19:28;4.80;;;1.90;;
72590;SDS011;60625;51.212;5.952;2023-08-06T00:24:28;4.10;;;1.50;;
72590;SDS011;60625;51.212;5.952;2023-08-06T00:29:29;4.50;;;1.70;;
72590;SDS011;60625;51.212;5.952;2023-08-06T00:34:30;3.70;;;1.70;;
72590;SDS011;60625;51.212;5.952;2023-08-06T00:39:30;5.30;;;1.80;;
72590;SDS011;60625;51.212;5.952;2023-08-06T00:44:31;4.80;;;1.60;;
72590;SDS011;60625;51.212;5.952;2023-08-06T00:49:31;4.60;;;1.70;;
72590;SDS011;60625;51.212;5.952;2023-08-06T00:54:33;6.50;;;1.40;;
72590;SDS011;60625;51.212;5.952;2023-08-06T00:59:35;4.10;;;1.50;;
72590;SDS011;60625;51.212;5.952;2023-08-06T01:04:35;3.90;;;1.50;;
72590;SDS011;60625;51.212;5.952;2023-08-06T01:09:50;6.10;;;1.60;;
72590;SDS011;60625;51.212;5.952;2023-08-06T01:15:07;5.00;;;1.60;;
72590;SDS011;60625;51.212;5.952;2023-08-06T01:20:12;3.30;;;1.40;;
72590;SDS011;60625;51.212;5.952;2023-08-06T01:25:16;4.20;;;1.10;;
72590;SDS011;60625;51.212;5.952;2023-08-06T01:30:35;5.40;;;1.50;;
72590;SDS011;60625;51.212;5.952;2023-08-06T01:35:42;4.50;;;1.50;;
72590;SDS011;60625;51.212;5.952;2023-08-06T01:40:42;6.00;;;1.50;;
72590;SDS011;60625;51.212;5.952;2023-08-06T01:45:43;4.10;;;1.10;;
72590;SDS011;60625;51.212;5.952;2023-08-06T01:50:43;4.30;;;1.40;;
72590;SDS011;60625;51.212;5.952;2023-08-06T01:55:50;7.90;;;1.70;;
72590;SDS011;60625;51.212;5.952;2023-08-06T02:00:50;4.10;;;1.30;;
72590;SDS011;60625;51.212;5.952;2023-08-06T02:05:51;5.70;;;1.30;;
72590;SDS011;60625;51.212;5.952;2023-08-06T02:10:51;4.30;;;1.50;;
72590;SDS011;60625;51.212;5.952;2023-08-06T02:15:51;3.50;;;1.50;;
72590;SDS011;60625;51.212;5.952;2023-08-06T02:20:56;6.20;;;1.50;;
72590;SDS011;60625;51.212;5.952;2023-08-06T02:26:03;4.80;;;1.30;;
72590;SDS011;60625;51.212;5.952;2023-08-06T02:31:04;5.30;;;1.30;;
72590;SDS011;60625;51.212;5.952;2023-08-06T02:36:06;5.40;;;1.60;;
72590;SDS011;60625;51.212;5.952;2023-08-06T02:41:07;4.30;;;1.90;;
72590;SDS011;60625;51.212;5.952;2023-08-06T02:46:07;6.20;;;2.50;;
72590;SDS011;60625;51.212;5.952;2023-08-06T02:51:08;5.40;;;2.20;;
72590;SDS011;60625;51.212;5.952;2023-08-06T02:56:08;5.30;;;1.80;;
72590;SDS011;60625;51.212;5.952;2023-08-06T03:01:19;4.30;;;1.40;;
72590;SDS011;60625;51.212;5.952;2023-08-06T03:06:25;4.90;;;1.20;;
72590;SDS011;60625;51.212;5.952;2023-08-06T03:11:27;7.80;;;1.60;;
72590;SDS011;60625;51.212;5.952;2023-08-06T03:16:31;5.70;;;1.60;;
72590;SDS011;60625;51.212;5.952;2023-08-06T03:21:32;5.50;;;1.30;;
72590;SDS011;60625;51.212;5.952;2023-08-06T03:26:34;5.00;;;1.10;;
72590;SDS011;60625;51.212;5.952;2023-08-06T03:31:35;2.70;;;0.90;;
72590;SDS011;60625;51.212;5.952;2023-08-06T03:36:37;4.80;;;1.00;;
72590;SDS011;60625;51.212;5.952;2023-08-06T03:41:37;4.20;;;1.50;;
72590;SDS011;60625;51.212;5.952;2023-08-06T03:46:38;5.90;;;1.10;;
72590;SDS011;60625;51.212;5.952;2023-08-06T03:51:40;3.30;;;1.10;;
72590;SDS011;60625;51.212;5.952;2023-08-06T03:56:40;3.70;;;1.10;;
72590;SDS011;60625;51.212;5.952;2023-08-06T04:01:41;5.30;;;1.30;;
72590;SDS011;60625;51.212;5.952;2023-08-06T04:06:42;3.90;;;1.20;;
72590;SDS011;60625;51.212;5.952;2023-08-06T04:11:42;3.40;;;1.00;;
72590;SDS011;60625;51.212;5.952;2023-08-06T04:16:43;5.60;;;2.30;;
72590;SDS011;60625;51.212;5.952;2023-08-06T04:21:43;7.80;;;3.10;;
72590;SDS011;60625;51.212;5.952;2023-08-06T04:26:45;11.30;;;5.20;;
72590;SDS011;60625;51.212;5.952;2023-08-06T04:31:45;10.80;;;5.40;;
72590;SDS011;60625;51.212;5.952;2023-08-06T04:36:47;11.10;;;4.90;;
72590;SDS011;60625;51.212;5.952;2023-08-06T04:41:47;11.00;;;4.80;;
72590;SDS011;60625;51.212;5.952;2023-08-06T04:46:48;8.10;;;2.70;;
72590;SDS011;60625;51.212;5.952;2023-08-06T04:51:49;6.90;;;2.50;;
72590;SDS011;60625;51.212;5.952;2023-08-06T04:56:49;7.90;;;1.80;;
72590;SDS011;60625;51.212;5.952;2023-08-06T05:01:49;5.50;;;1.40;;
72590;SDS011;60625;51.212;5.952;2023-08-06T05:06:50;3.00;;;0.80;;
72590;SDS011;60625;51.212;5.952;2023-08-06T05:11:50;3.70;;;1.10;;
72590;SDS011;60625;51.212;5.952;2023-08-06T05:16:51;4.40;;;1.30;;
72590;SDS011;60625;51.212;5.952;2023-08-06T05:21:51;5.10;;;1.10;;
72590;SDS011;60625;51.212;5.952;2023-08-06T05:26:52;4.90;;;1.10;;
72590;SDS011;60625;51.212;5.952;2023-08-06T05:31:52;3.40;;;1.10;;
72590;SDS011;60625;51.212;5.952;2023-08-06T05:36:52;3.60;;;1.10;;
72590;SDS011;60625;51.212;5.952;2023-08-06T05:41:53;2.60;;;1.00;;
72590;SDS011;60625;51.212;5.952;2023-08-06T05:46:53;4.60;;;1.20;;
72590;SDS011;60625;51.212;5.952;2023-08-06T05:51:54;2.50;;;0.70;;
72590;SDS011;60625;51.212;5.952;2023-08-06T05:56:54;2.20;;;0.60;;
72590;SDS011;60625;51.212;5.952;2023-08-06T06:01:55;2.20;;;0.70;;
72590;SDS011;60625;51.212;5.952;2023-08-06T06:06:55;4.40;;;0.80;;
72590;SDS011;60625;51.212;5.952;2023-08-06T06:11:56;3.40;;;0.80;;
72590;SDS011;60625;51.212;5.952;2023-08-06T06:16:56;5.30;;;0.50;;
72590;SDS011;60625;51.212;5.952;2023-08-06T06:21:57;5.20;;;0.70;;
72590;SDS011;60625;51.212;5.952;2023-08-06T06:26:58;2.30;;;0.50;;
72590;SDS011;60625;51.212;5.952;2023-08-06T06:31:59;2.80;;;0.80;;
72590;SDS011;60625;51.212;5.952;2023-08-06T06:36:59;2.30;;;0.60;;
72590;SDS011;60625;51.212;5.952;2023-08-06T06:42:00;1.90;;;0.50;;
72590;SDS011;60625;51.212;5.952;2023-08-06T06:47:04;2.70;;;0.80;;
72590;SDS011;60625;51.212;5.952;2023-08-06T06:52:06;2.20;;;0.70;;
72590;SDS011;60625;51.212;5.952;2023-08-06T06:57:06;3.10;;;0.80;;
72590;SDS011;60625;51.212;5.952;2023-08-06T07:02:07;2.60;;;0.60;;
72590;SDS011;60625;51.212;5.952;2023-08-06T07:07:07;2.30;;;0.60;;
72590;SDS011;60625;51.212;5.952;2023-08-06T07:12:08;3.70;;;0.70;;
72590;SDS011;60625;51.212;5.952;2023-08-06T07:17:08;2.20;;;0.60;;
72590;SDS011;60625;51.212;5.952;2023-08-06T07:22:09;2.60;;;0.80;;
72590;SDS011;60625;51.212;5.952;2023-08-06T07:27:10;2.20;;;0.80;;
72590;SDS011;60625;51.212;5.952;2023-08-06T07:32:10;2.80;;;0.90;;
72590;SDS011;60625;51.212;5.952;2023-08-06T07:37:10;2.70;;;1.00;;
72590;SDS011;60625;51.212;5.952;2023-08-06T07:42:11;3.90;;;1.80;;
72590;SDS011;60625;51.212;5.952;2023-08-06T07:47:11;6.90;;;2.40;;
72590;SDS011;60625;51.212;5.952;2023-08-06T07:52:12;7.50;;;2.60;;
72590;SDS011;60625;51.212;5.952;2023-08-06T07:57:13;5.30;;;2.70;;
72590;SDS011;60625;51.212;5.952;2023-08-06T08:02:15;4.60;;;1.50;;
72590;SDS011;60625;51.212;5.952;2023-08-06T08:07:15;5.70;;;2.10;;
72590;SDS011;60625;51.212;5.952;2023-08-06T08:12:16;6.50;;;2.80;;
72590;SDS011;60625;51.212;5.952;2023-08-06T08:17:16;3.70;;;1.60;;
72590;SDS011;60625;51.212;5.952;2023-08-06T08:22:17;3.30;;;1.10;;
72590;SDS011;60625;51.212;5.952;2023-08-06T08:27:18;3.00;;;1.30;;
72590;SDS011;60625;51.212;5.952;2023-08-06T08:32:18;3.10;;;1.10;;
72590;SDS011;60625;51.212;5.952;2023-08-06T08:37:18;6.00;;;1.10;;
72590;SDS011;60625;51.212;5.952;2023-08-06T08:42:19;3.20;;;1.20;;
72590;SDS011;60625;51.212;5.952;2023-08-06T08:47:21;3.50;;;1.00;;
72590;SDS011;60625;51.212;5.952;2023-08-06T08:52:23;3.60;;;1.00;;
72590;SDS011;60625;51.212;5.952;2023-08-06T08:57:25;4.10;;;1.60;;
72590;SDS011;60625;51.212;5.952;2023-08-06T09:02:28;4.00;;;1.40;;
72590;SDS011;60625;51.212;5.952;2023-08-06T09:07:35;3.90;;;1.70;;
72590;SDS011;60625;51.212;5.952;2023-08-06T09:12:41;3.40;;;1.10;;
72590;SDS011;60625;51.212;5.952;2023-08-06T09:17:41;4.80;;;1.50;;
72590;SDS011;60625;51.212;5.952;2023-08-06T09:22:42;3.90;;;1.40;;
72590;SDS011;60625;51.212;5.952;2023-08-06T09:27:46;4.80;;;1.90;;
72590;SDS011;60625;51.212;5.952;2023-08-06T09:32:48;5.20;;;1.20;;
72590;SDS011;60625;51.212;5.952;2023-08-06T09:37:52;5.90;;;1.80;;
72590;SDS011;60625;51.212;5.952;2023-08-06T09:42:52;6.50;;;2.00;;
72590;SDS011;60625;51.212;5.952;2023-08-06T09:47:57;6.70;;;2.30;;
72590;SDS011;60625;51.212;5.952;2023-08-06T09:53:01;9.80;;;2.90;;
72590;SDS011;60625;51.212;5.952;2023-08-06T09:58:03;6.50;;;2.10;;
72590;SDS011;60625;51.212;5.952;2023-08-06T10:03:06;7.90;;;2.20;;
72590;SDS011;60625;51.212;5.952;2023-08-06T10:08:08;6.40;;;2.20;;
72590;SDS011;60625;51.212;5.952;2023-08-06T10:13:09;7.90;;;2.20;;
72590;SDS011;60625;51.212;5.952;2023-08-06T10:18:11;7.80;;;2.10;;
72590;SDS011;60625;51.212;5.952;2023-08-06T10:23:12;5.40;;;1.20;;
72590;SDS011;60625;51.212;5.952;2023-08-06T10:28:14;8.10;;;1.60;;
72590;SDS011;60625;51.212;5.952;2023-08-06T10:33:15;8.00;;;1.60;;
72590;SDS011;60625;51.212;5.952;2023-08-06T10:38:21;7.50;;;2.00;;
72590;SDS011;60625;51.212;5.952;2023-08-06T10:48:37;8.10;;;2.00;;
72590;SDS011;60625;51.212;5.952;2023-08-06T10:53:43;8.30;;;1.60;;
72590;SDS011;60625;51.212;5.952;2023-08-06T10:58:47;6.60;;;1.50;;
72590;SDS011;60625;51.212;5.952;2023-08-06T11:03:48;6.60;;;2.30;;
72590;SDS011;60625;51.212;5.952;2023-08-06T11:08:52;6.60;;;1.80;;
72590;SDS011;60625;51.212;5.952;2023-08-06T11:13:54;8.20;;;2.00;;
72590;SDS011;60625;51.212;5.952;2023-08-06T11:18:55;7.00;;;2.00;;
72590;SDS011;60625;51.212;5.952;2023-08-06T11:24:00;6.10;;;1.90;;
72590;SDS011;60625;51.212;5.952;2023-08-06T11:29:05;6.20;;;2.10;;
72590;SDS011;60625;51.212;5.952;2023-08-06T11:34:07;6.20;;;1.90;;
72590;SDS011;60625;51.212;5.952;2023-08-06T11:39:08;8.20;;;1.80;;
72590;SDS011;60625;51.212;5.952;2023-08-06T11:44:11;4.80;;;1.50;;
72590;SDS011;60625;51.212;5.952;2023-08-06T11:49:12;4.60;;;1.30;;
72590;SDS011;60625;51.212;5.952;2023-08-06T11:54:13;6.00;;;1.50;;
72590;SDS011;60625;51.212;5.952;2023-08-06T11:59:15;5.10;;;1.80;;
72590;SDS011;60625;51.212;5.952;2023-08-06T12:04:19;5.40;;;1.80;;
72590;SDS011;60625;51.212;5.952;2023-08-06T12:09:20;9.60;;;2.60;;
72590;SDS011;60625;51.212;5.952;2023-08-06T12:14:23;10.50;;;2.70;;
72590;SDS011;60625;51.212;5.952;2023-08-06T12:19:24;8.90;;;2.70;;
72590;SDS011;60625;51.212;5.952;2023-08-06T12:24:25;7.30;;;2.70;;
72590;SDS011;60625;51.212;5.952;2023-08-06T12:29:26;9.00;;;3.00;;
72590;SDS011;60625;51.212;5.952;2023-08-06T12:34:26;9.70;;;2.50;;
72590;SDS011;60625;51.212;5.952;2023-08-06T12:39:27;6.20;;;2.50;;
72590;SDS011;60625;51.212;5.952;2023-08-06T12:44:28;6.60;;;2.50;;
72590;SDS011;60625;51.212;5.952;2023-08-06T12:49:29;7.00;;;2.40;;
72590;SDS011;60625;51.212;5.952;2023-08-06T12:54:32;7.70;;;2.00;;
72590;SDS011;60625;51.212;5.952;2023-08-06T12:59:39;6.80;;;2.20;;
72590;SDS011;60625;51.212;5.952;2023-08-06T13:04:40;7.50;;;1.40;;
72590;SDS011;60625;51.212;5.952;2023-08-06T13:09:40;4.30;;;1.10;;
72590;SDS011;60625;51.212;5.952;2023-08-06T13:14:40;7.70;;;1.40;;
72590;SDS011;60625;51.212;5.952;2023-08-06T13:19:41;6.00;;;0.90;;
72590;SDS011;60625;51.212;5.952;2023-08-06T13:24:42;5.30;;;1.00;;
72590;SDS011;60625;51.212;5.952;2023-08-06T13:29:42;12.10;;;1.20;;
72590;SDS011;60625;51.212;5.952;2023-08-06T13:34:43;6.10;;;0.90;;
72590;SDS011;60625;51.212;5.952;2023-08-06T13:39:43;6.50;;;1.10;;
72590;SDS011;60625;51.212;5.952;2023-08-06T13:44:44;6.20;;;0.90;;
72590;SDS011;60625;51.212;5.952;2023-08-06T13:49:45;6.60;;;1.60;;
72590;SDS011;60625;51.212;5.952;2023-08-06T13:54:45;5.90;;;1.30;;
72590;SDS011;60625;51.212;5.952;2023-08-06T13:59:46;5.70;;;1.30;;
72590;SDS011;60625;51.212;5.952;2023-08-06T14:04:46;6.80;;;1.40;;
72590;SDS011;60625;51.212;5.952;2023-08-06T14:09:47;5.30;;;1.30;;
72590;SDS011;60625;51.212;5.952;2023-08-06T14:14:49;4.80;;;1.20;;
72590;SDS011;60625;51.212;5.952;2023-08-06T14:19:50;6.70;;;1.20;;
72590;SDS011;60625;51.212;5.952;2023-08-06T14:24:52;6.20;;;1.20;;
72590;SDS011;60625;51.212;5.952;2023-08-06T14:29:53;5.00;;;1.40;;
72590;SDS011;60625;51.212;5.952;2023-08-06T14:34:54;8.50;;;1.00;;
72590;SDS011;60625;51.212;5.952;2023-08-06T14:39:54;4.50;;;0.80;;
72590;SDS011;60625;51.212;5.952;2023-08-06T14:44:55;4.10;;;1.00;;
72590;SDS011;60625;51.212;5.952;2023-08-06T14:49:55;4.30;;;1.00;;
72590;SDS011;60625;51.212;5.952;2023-08-06T14:54:56;8.00;;;1.50;;
72590;SDS011;60625;51.212;5.952;2023-08-06T14:59:56;9.10;;;1.40;;
72590;SDS011;60625;51.212;5.952;2023-08-06T15:04:57;6.80;;;0.90;;
72590;SDS011;60625;51.212;5.952;2023-08-06T15:09:57;5.60;;;1.30;;
72590;SDS011;60625;51.212;5.952;2023-08-06T15:14:59;5.90;;;1.20;;
72590;SDS011;60625;51.212;5.952;2023-08-06T15:20:01;5.30;;;1.10;;
72590;SDS011;60625;51.212;5.952;2023-08-06T15:25:03;6.80;;;1.10;;
72590;SDS011;60625;51.212;5.952;2023-08-06T15:30:05;5.50;;;1.10;;
72590;SDS011;60625;51.212;5.952;2023-08-06T15:35:07;6.50;;;1.40;;
72590;SDS011;60625;51.212;5.952;2023-08-06T15:40:10;7.80;;;1.60;;
72590;SDS011;60625;51.212;5.952;2023-08-06T15:45:12;11.10;;;1.70;;
72590;SDS011;60625;51.212;5.952;2023-08-06T15:50:13;5.40;;;1.40;;
72590;SDS011;60625;51.212;5.952;2023-08-06T15:55:14;7.40;;;1.70;;
72590;SDS011;60625;51.212;5.952;2023-08-06T16:00:14;9.50;;;1.60;;
72590;SDS011;60625;51.212;5.952;2023-08-06T16:05:16;7.50;;;1.30;;
72590;SDS011;60625;51.212;5.952;2023-08-06T16:10:17;5.00;;;1.10;;
72590;SDS011;60625;51.212;5.952;2023-08-06T16:15:18;4.20;;;1.20;;
72590;SDS011;60625;51.212;5.952;2023-08-06T16:20:19;3.50;;;1.00;;
72590;SDS011;60625;51.212;5.952;2023-08-06T16:25:23;3.20;;;1.10;;
72590;SDS011;60625;51.212;5.952;2023-08-06T16:30:24;3.80;;;1.00;;
72590;SDS011;60625;51.212;5.952;2023-08-06T16:35:27;5.00;;;1.00;;
72590;SDS011;60625;51.212;5.952;2023-08-06T16:40:29;3.10;;;0.50;;
72590;SDS011;60625;51.212;5.952;2023-08-06T16:45:30;3.90;;;0.70;;
72590;SDS011;60625;51.212;5.952;2023-08-06T16:50:31;2.60;;;0.60;;
72590;SDS011;60625;51.212;5.952;2023-08-06T16:55:32;2.30;;;0.60;;
72590;SDS011;60625;51.212;5.952;2023-08-06T17:00:32;3.70;;;0.50;;
72590;SDS011;60625;51.212;5.952;2023-08-06T17:05:33;5.50;;;0.40;;
72590;SDS011;60625;51.212;5.952;2023-08-06T17:10:34;6.50;;;0.60;;
72590;SDS011;60625;51.212;5.952;2023-08-06T17:15:35;2.00;;;0.50;;
72590;SDS011;60625;51.212;5.952;2023-08-06T17:20:36;2.90;;;0.60;;
72590;SDS011;60625;51.212;5.952;2023-08-06T17:25:36;3.70;;;0.60;;
72590;SDS011;60625;51.212;5.952;2023-08-06T17:30:41;4.40;;;0.60;;
72590;SDS011;60625;51.212;5.952;2023-08-06T17:35:43;3.60;;;0.80;;
72590;SDS011;60625;51.212;5.952;2023-08-06T17:40:44;6.20;;;0.90;;
72590;SDS011;60625;51.212;5.952;2023-08-06T17:45:45;3.90;;;0.70;;
72590;SDS011;60625;51.212;5.952;2023-08-06T17:50:46;4.20;;;0.80;;
72590;SDS011;60625;51.212;5.952;2023-08-06T17:55:47;5.20;;;0.60;;
72590;SDS011;60625;51.212;5.952;2023-08-06T18:00:48;4.50;;;0.40;;
72590;SDS011;60625;51.212;5.952;2023-08-06T18:05:56;4.90;;;0.90;;
72590;SDS011;60625;51.212;5.952;2023-08-06T18:10:57;8.30;;;1.00;;
72590;SDS011;60625;51.212;5.952;2023-08-06T18:15:58;6.50;;;0.90;;
72590;SDS011;60625;51.212;5.952;2023-08-06T18:20:58;8.20;;;1.40;;
72590;SDS011;60625;51.212;5.952;2023-08-06T18:25:59;4.40;;;1.10;;
72590;SDS011;60625;51.212;5.952;2023-08-06T18:30:59;7.10;;;1.10;;
72590;SDS011;60625;51.212;5.952;2023-08-06T18:36:00;5.70;;;1.10;;
72590;SDS011;60625;51.212;5.952;2023-08-06T18:41:00;11.50;;;1.00;;
72590;SDS011;60625;51.212;5.952;2023-08-06T18:46:01;7.50;;;0.90;;
72590;SDS011;60625;51.212;5.952;2023-08-06T18:51:01;5.50;;;0.90;;
72590;SDS011;60625;51.212;5.952;2023-08-06T18:56:02;6.70;;;1.10;;
72590;SDS011;60625;51.212;5.952;2023-08-06T19:01:03;5.40;;;0.80;;
72590;SDS011;60625;51.212;5.952;2023-08-06T19:06:03;7.10;;;1.00;;
72590;SDS011;60625;51.212;5.952;2023-08-06T19:11:06;5.80;;;1.00;;
72590;SDS011;60625;51.212;5.952;2023-08-06T19:16:06;5.50;;;0.90;;
72590;SDS011;60625;51.212;5.952;2023-08-06T19:21:07;5.30;;;1.10;;
72590;SDS011;60625;51.212;5.952;2023-08-06T19:26:07;6.90;;;0.80;;
72590;SDS011;60625;51.212;5.952;2023-08-06T19:31:08;8.40;;;0.90;;
72590;SDS011;60625;51.212;5.952;2023-08-06T19:36:08;7.10;;;1.00;;
72590;SDS011;60625;51.212;5.952;2023-08-06T19:41:09;13.40;;;1.30;;
72590;SDS011;60625;51.212;5.952;2023-08-06T19:46:10;7.70;;;1.10;;
72590;SDS011;60625;51.212;5.952;2023-08-06T19:51:11;6.80;;;1.20;;
72590;SDS011;60625;51.212;5.952;2023-08-06T19:56:11;6.70;;;0.90;;
72590;SDS011;60625;51.212;5.952;2023-08-06T20:01:12;4.40;;;1.20;;
72590;SDS011;60625;51.212;5.952;2023-08-06T20:06:12;11.00;;;1.40;;
72590;SDS011;60625;51.212;5.952;2023-08-06T20:11:13;10.80;;;1.70;;
72590;SDS011;60625;51.212;5.952;2023-08-06T20:16:13;7.40;;;1.10;;
72590;SDS011;60625;51.212;5.952;2023-08-06T20:21:14;7.10;;;1.20;;
72590;SDS011;60625;51.212;5.952;2023-08-06T20:26:14;9.30;;;1.30;;
72590;SDS011;60625;51.212;5.952;2023-08-06T20:31:15;4.60;;;0.70;;
72590;SDS011;60625;51.212;5.952;2023-08-06T20:36:15;6.70;;;1.10;;
72590;SDS011;60625;51.212;5.952;2023-08-06T20:41:16;8.00;;;1.10;;
72590;SDS011;60625;51.212;5.952;2023-08-06T20:46:16;6.60;;;1.30;;
72590;SDS011;60625;51.212;5.952;2023-08-06T20:51:16;7.50;;;0.80;;
72590;SDS011;60625;51.212;5.952;2023-08-06T20:56:17;6.60;;;1.10;;
72590;SDS011;60625;51.212;5.952;2023-08-06T21:01:18;7.20;;;0.90;;
72590;SDS011;60625;51.212;5.952;2023-08-06T21:06:18;7.10;;;0.90;;
72590;SDS011;60625;51.212;5.952;2023-08-06T21:11:19;9.10;;;1.00;;
72590;SDS011;60625;51.212;5.952;2023-08-06T21:16:19;5.60;;;1.10;;
72590;SDS011;60625;51.212;5.952;2023-08-06T21:21:20;7.20;;;2.10;;
72590;SDS011;60625;51.212;5.952;2023-08-06T21:26:20;4.80;;;1.00;;
72590;SDS011;60625;51.212;5.952;2023-08-06T21:31:21;8.10;;;1.30;;
72590;SDS011;60625;51.212;5.952;2023-08-06T21:36:21;7.30;;;1.20;;
72590;SDS011;60625;51.212;5.952;2023-08-06T21:41:24;8.10;;;0.80;;
72590;SDS011;60625;51.212;5.952;2023-08-06T21:46:24;7.00;;;1.30;;
72590;SDS011;60625;51.212;5.952;2023-08-06T21:51:25;6.30;;;1.30;;
72590;SDS011;60625;51.212;5.952;2023-08-06T21:56:26;6.30;;;1.30;;
72590;SDS011;60625;51.212;5.952;2023-08-06T22:01:26;8.40;;;1.10;;
72590;SDS011;60625;51.212;5.952;2023-08-06T22:06:27;7.00;;;1.20;;
72590;SDS011;60625;51.212;5.952;2023-08-06T22:11:27;8.90;;;1.60;;
72590;SDS011;60625;51.212;5.952;2023-08-06T22:16:28;8.90;;;1.50;;
72590;SDS011;60625;51.212;5.952;2023-08-06T22:21:28;9.20;;;1.70;;
72590;SDS011;60625;51.212;5.952;2023-08-06T22:26:29;9.90;;;1.50;;
72590;SDS011;60625;51.212;5.952;2023-08-06T22:31:29;14.10;;;1.60;;
72590;SDS011;60625;51.212;5.952;2023-08-06T22:36:29;9.50;;;1.90;;
72590;SDS011;60625;51.212;5.952;2023-08-06T22:41:30;10.00;;;1.90;;
72590;SDS011;60625;51.212;5.952;2023-08-06T22:46:30;11.00;;;1.90;;
72590;SDS011;60625;51.212;5.952;2023-08-06T22:51:31;10.20;;;1.80;;
72590;SDS011;60625;51.212;5.952;2023-08-06T22:56:31;11.10;;;2.30;;
72590;SDS011;60625;51.212;5.952;2023-08-06T23:01:33;8.80;;;1.80;;
72590;SDS011;60625;51.212;5.952;2023-08-06T23:06:33;13.30;;;1.90;;
72590;SDS011;60625;51.212;5.952;2023-08-06T23:11:34;10.50;;;1.90;;
72590;SDS011;60625;51.212;5.952;2023-08-06T23:16:34;9.60;;;1.90;;
72590;SDS011;60625;51.212;5.952;2023-08-06T23:21:34;12.30;;;1.80;;
72590;SDS011;60625;51.212;5.952;2023-08-06T23:26:35;14.20;;;2.00;;
72590;SDS011;60625;51.212;5.952;2023-08-06T23:31:36;6.90;;;1.80;;
72590;SDS011;60625;51.212;5.952;2023-08-06T23:36:36;11.00;;;2.30;;
72590;SDS011;60625;51.212;5.952;2023-08-06T23:41:38;7.80;;;1.70;;
72590;SDS011;60625;51.212;5.952;2023-08-06T23:46:39;10.60;;;1.80;;
72590;SDS011;60625;51.212;5.952;2023-08-06T23:51:39;11.90;;;1.90;;
72590;SDS011;60625;51.212;5.952;2023-08-06T23:56:40;7.30;;;1.50;;
